Aviation Digital Data Service (ADDS)

Output produced by METARs form (1528 UTC 18 January 2018)
found at http://aviationweather.gov/adds/metars/
 
KLFT 181453Z 04004KT 10SM CLR M03/M08 A3060 RMK AO2 SLP363 T10331078 53008 $